sensor_id;sensor_type;location;lat;lon;timestamp;temperature;humidity
48806;DHT22;34625;47.176;27.548;2022-10-20T00:01:00;23.10;58.00
48806;DHT22;34625;47.176;27.548;2022-10-20T00:03:27;23.10;59.70
48806;DHT22;34625;47.176;27.548;2022-10-20T00:05:53;23.10;59.80
48806;DHT22;34625;47.176;27.548;2022-10-20T00:08:20;23.20;59.50
48806;DHT22;34625;47.176;27.548;2022-10-20T00:10:56;23.10;59.70
48806;DHT22;34625;47.176;27.548;2022-10-20T00:13:23;23.00;59.20
48806;DHT22;34625;47.176;27.548;2022-10-20T00:15:54;23.00;59.80
48806;DHT22;34625;47.176;27.548;2022-10-20T00:18:21;23.00;56.70
48806;DHT22;34625;47.176;27.548;2022-10-20T00:20:47;22.90;55.20
48806;DHT22;34625;47.176;27.548;2022-10-20T00:23:13;22.90;59.00
48806;DHT22;34625;47.176;27.548;2022-10-20T00:25:39;22.90;58.60
48806;DHT22;34625;47.176;27.548;2022-10-20T00:28:05;22.80;56.80
48806;DHT22;34625;47.176;27.548;2022-10-20T00:30:33;22.80;59.10
48806;DHT22;34625;47.176;27.548;2022-10-20T00:33:00;22.80;59.60
48806;DHT22;34625;47.176;27.548;2022-10-20T00:35:28;22.80;59.70
48806;DHT22;34625;47.176;27.548;2022-10-20T00:37:54;22.90;59.00
48806;DHT22;34625;47.176;27.548;2022-10-20T00:40:20;23.00;59.10
48806;DHT22;34625;47.176;27.548;2022-10-20T00:42:47;22.90;59.80
48806;DHT22;34625;47.176;27.548;2022-10-20T00:45:21;22.90;59.90
48806;DHT22;34625;47.176;27.548;2022-10-20T00:47:54;23.10;58.70
48806;DHT22;34625;47.176;27.548;2022-10-20T00:50:42;23.00;59.50
48806;DHT22;34625;47.176;27.548;2022-10-20T00:53:10;23.00;58.60
48806;DHT22;34625;47.176;27.548;2022-10-20T00:55:40;23.00;58.60
48806;DHT22;34625;47.176;27.548;2022-10-20T00:58:07;22.90;59.00
48806;DHT22;34625;47.176;27.548;2022-10-20T01:00:33;22.90;57.90
48806;DHT22;34625;47.176;27.548;2022-10-20T01:03:03;22.90;59.00
48806;DHT22;34625;47.176;27.548;2022-10-20T01:05:29;22.90;60.10
48806;DHT22;34625;47.176;27.548;2022-10-20T01:07:55;22.90;59.70
48806;DHT22;34625;47.176;27.548;2022-10-20T01:10:22;22.90;60.00
48806;DHT22;34625;47.176;27.548;2022-10-20T01:12:55;22.90;59.00
48806;DHT22;34625;47.176;27.548;2022-10-20T01:15:43;23.00;60.00
48806;DHT22;34625;47.176;27.548;2022-10-20T01:18:22;22.90;60.00
48806;DHT22;34625;47.176;27.548;2022-10-20T01:29:35;22.90;58.20
48806;DHT22;34625;47.176;27.548;2022-10-20T01:32:16;22.90;60.40
48806;DHT22;34625;47.176;27.548;2022-10-20T01:37:57;23.00;60.10
48806;DHT22;34625;47.176;27.548;2022-10-20T01:42:58;23.10;59.20
48806;DHT22;34625;47.176;27.548;2022-10-20T01:45:28;23.00;60.00
48806;DHT22;34625;47.176;27.548;2022-10-20T01:47:57;22.90;59.20
48806;DHT22;34625;47.176;27.548;2022-10-20T01:50:24;22.90;59.10
48806;DHT22;34625;47.176;27.548;2022-10-20T01:52:55;23.00;60.10
48806;DHT22;34625;47.176;27.548;2022-10-20T01:55:22;22.90;59.80
48806;DHT22;34625;47.176;27.548;2022-10-20T02:00:29;22.90;60.10
48806;DHT22;34625;47.176;27.548;2022-10-20T02:10:59;23.00;59.90
48806;DHT22;34625;47.176;27.548;2022-10-20T02:13:28;23.00;59.90
48806;DHT22;34625;47.176;27.548;2022-10-20T02:15:57;22.90;60.60
48806;DHT22;34625;47.176;27.548;2022-10-20T02:18:30;23.00;59.50
48806;DHT22;34625;47.176;27.548;2022-10-20T02:21:00;22.90;60.70
48806;DHT22;34625;47.176;27.548;2022-10-20T02:23:30;22.90;60.10
48806;DHT22;34625;47.176;27.548;2022-10-20T02:25:58;23.00;60.30
48806;DHT22;34625;47.176;27.548;2022-10-20T02:28:30;22.90;60.80
48806;DHT22;34625;47.176;27.548;2022-10-20T02:30:57;22.90;59.80
48806;DHT22;34625;47.176;27.548;2022-10-20T02:33:23;22.90;60.90
48806;DHT22;34625;47.176;27.548;2022-10-20T02:35:56;22.90;60.40
48806;DHT22;34625;47.176;27.548;2022-10-20T02:38:22;22.90;60.80
48806;DHT22;34625;47.176;27.548;2022-10-20T02:40:48;22.90;60.80
48806;DHT22;34625;47.176;27.548;2022-10-20T02:43:14;22.80;60.80
48806;DHT22;34625;47.176;27.548;2022-10-20T02:45:40;22.80;60.90
48806;DHT22;34625;47.176;27.548;2022-10-20T02:48:06;22.80;60.90
48806;DHT22;34625;47.176;27.548;2022-10-20T02:50:35;22.80;60.30
48806;DHT22;34625;47.176;27.548;2022-10-20T02:53:02;22.80;61.10
48806;DHT22;34625;47.176;27.548;2022-10-20T02:55:28;22.80;61.20
48806;DHT22;34625;47.176;27.548;2022-10-20T02:57:54;22.80;61.20
48806;DHT22;34625;47.176;27.548;2022-10-20T03:00:20;22.80;57.90
48806;DHT22;34625;47.176;27.548;2022-10-20T03:02:47;22.70;60.70
48806;DHT22;34625;47.176;27.548;2022-10-20T03:05:13;22.60;61.60
48806;DHT22;34625;47.176;27.548;2022-10-20T03:07:39;22.70;61.00
48806;DHT22;34625;47.176;27.548;2022-10-20T03:10:06;22.70;61.50
48806;DHT22;34625;47.176;27.548;2022-10-20T03:12:32;22.80;59.50
48806;DHT22;34625;47.176;27.548;2022-10-20T03:14:58;22.60;60.40
48806;DHT22;34625;47.176;27.548;2022-10-20T03:17:24;22.70;59.50
48806;DHT22;34625;47.176;27.548;2022-10-20T03:19:49;22.50;61.00
48806;DHT22;34625;47.176;27.548;2022-10-20T03:22:15;22.70;61.40
48806;DHT22;34625;47.176;27.548;2022-10-20T03:24:41;22.50;58.40
48806;DHT22;34625;47.176;27.548;2022-10-20T03:27:07;22.40;57.90
48806;DHT22;34625;47.176;27.548;2022-10-20T03:29:33;22.50;61.00
48806;DHT22;34625;47.176;27.548;2022-10-20T03:31:59;22.50;61.70
48806;DHT22;34625;47.176;27.548;2022-10-20T03:34:25;22.60;60.00
48806;DHT22;34625;47.176;27.548;2022-10-20T03:36:52;22.50;61.50
48806;DHT22;34625;47.176;27.548;2022-10-20T03:39:18;22.50;59.90
48806;DHT22;34625;47.176;27.548;2022-10-20T03:41:44;22.60;61.20
48806;DHT22;34625;47.176;27.548;2022-10-20T03:44:10;22.50;61.10
48806;DHT22;34625;47.176;27.548;2022-10-20T03:46:36;22.70;60.10
48806;DHT22;34625;47.176;27.548;2022-10-20T03:49:02;22.60;60.30
48806;DHT22;34625;47.176;27.548;2022-10-20T03:51:28;22.50;59.50
48806;DHT22;34625;47.176;27.548;2022-10-20T03:53:54;22.60;59.20
48806;DHT22;34625;47.176;27.548;2022-10-20T03:56:20;22.50;59.20
48806;DHT22;34625;47.176;27.548;2022-10-20T03:58:46;22.60;58.90
48806;DHT22;34625;47.176;27.548;2022-10-20T04:01:17;22.60;61.30
48806;DHT22;34625;47.176;27.548;2022-10-20T04:03:44;22.40;58.50
48806;DHT22;34625;47.176;27.548;2022-10-20T04:06:14;22.50;59.10
48806;DHT22;34625;47.176;27.548;2022-10-20T04:08:40;22.40;60.00
48806;DHT22;34625;47.176;27.548;2022-10-20T04:11:06;22.40;59.00
48806;DHT22;34625;47.176;27.548;2022-10-20T04:13:32;22.50;58.50
48806;DHT22;34625;47.176;27.548;2022-10-20T04:15:58;22.40;61.40
48806;DHT22;34625;47.176;27.548;2022-10-20T04:18:24;22.40;59.10
48806;DHT22;34625;47.176;27.548;2022-10-20T04:20:50;22.50;60.60
48806;DHT22;34625;47.176;27.548;2022-10-20T04:23:16;22.40;60.50
48806;DHT22;34625;47.176;27.548;2022-10-20T04:25:42;22.40;61.40
48806;DHT22;34625;47.176;27.548;2022-10-20T04:28:16;22.50;61.50
48806;DHT22;34625;47.176;27.548;2022-10-20T04:30:42;22.40;61.50
48806;DHT22;34625;47.176;27.548;2022-10-20T04:33:09;22.40;61.00
48806;DHT22;34625;47.176;27.548;2022-10-20T04:35:35;22.40;61.60
48806;DHT22;34625;47.176;27.548;2022-10-20T04:38:01;22.30;61.70
48806;DHT22;34625;47.176;27.548;2022-10-20T04:40:27;22.30;61.80
48806;DHT22;34625;47.176;27.548;2022-10-20T04:42:53;22.40;55.80
48806;DHT22;34625;47.176;27.548;2022-10-20T04:45:19;22.50;52.30
48806;DHT22;34625;47.176;27.548;2022-10-20T04:47:45;22.50;52.90
48806;DHT22;34625;47.176;27.548;2022-10-20T04:50:11;22.50;50.30
48806;DHT22;34625;47.176;27.548;2022-10-20T04:52:37;22.60;48.80
48806;DHT22;34625;47.176;27.548;2022-10-20T04:55:03;22.60;53.80
48806;DHT22;34625;47.176;27.548;2022-10-20T04:57:29;22.80;50.20
48806;DHT22;34625;47.176;27.548;2022-10-20T04:59:55;22.90;48.30
48806;DHT22;34625;47.176;27.548;2022-10-20T05:02:21;22.70;52.80
48806;DHT22;34625;47.176;27.548;2022-10-20T05:04:47;23.00;52.70
48806;DHT22;34625;47.176;27.548;2022-10-20T05:07:13;23.00;61.90
48806;DHT22;34625;47.176;27.548;2022-10-20T05:09:39;23.10;62.30
48806;DHT22;34625;47.176;27.548;2022-10-20T05:12:05;23.00;59.30
48806;DHT22;34625;47.176;27.548;2022-10-20T05:14:31;23.10;61.70
48806;DHT22;34625;47.176;27.548;2022-10-20T05:16:57;23.00;60.00
48806;DHT22;34625;47.176;27.548;2022-10-20T05:19:23;23.00;59.70
48806;DHT22;34625;47.176;27.548;2022-10-20T05:21:49;23.00;63.80
48806;DHT22;34625;47.176;27.548;2022-10-20T05:24:16;23.10;66.40
48806;DHT22;34625;47.176;27.548;2022-10-20T05:26:42;23.10;67.00
48806;DHT22;34625;47.176;27.548;2022-10-20T05:29:10;23.10;62.90
48806;DHT22;34625;47.176;27.548;2022-10-20T05:31:38;23.10;62.00
48806;DHT22;34625;47.176;27.548;2022-10-20T05:34:04;23.20;61.00
48806;DHT22;34625;47.176;27.548;2022-10-20T05:36:30;23.10;61.20
48806;DHT22;34625;47.176;27.548;2022-10-20T05:38:56;23.10;60.70
48806;DHT22;34625;47.176;27.548;2022-10-20T05:41:32;23.10;61.60
48806;DHT22;34625;47.176;27.548;2022-10-20T05:44:00;23.10;58.70
48806;DHT22;34625;47.176;27.548;2022-10-20T05:46:30;23.10;58.50
48806;DHT22;34625;47.176;27.548;2022-10-20T05:48:58;23.20;60.10
48806;DHT22;34625;47.176;27.548;2022-10-20T05:51:30;23.10;59.70
48806;DHT22;34625;47.176;27.548;2022-10-20T05:53:57;23.10;58.30
48806;DHT22;34625;47.176;27.548;2022-10-20T05:56:24;23.00;59.80
48806;DHT22;34625;47.176;27.548;2022-10-20T05:58:50;23.10;57.50
48806;DHT22;34625;47.176;27.548;2022-10-20T06:01:18;23.00;59.00
48806;DHT22;34625;47.176;27.548;2022-10-20T06:03:53;23.00;58.60
48806;DHT22;34625;47.176;27.548;2022-10-20T06:06:22;23.10;59.80
48806;DHT22;34625;47.176;27.548;2022-10-20T06:08:49;23.00;60.10
48806;DHT22;34625;47.176;27.548;2022-10-20T06:11:16;23.10;59.70
48806;DHT22;34625;47.176;27.548;2022-10-20T06:13:43;23.00;56.00
48806;DHT22;34625;47.176;27.548;2022-10-20T06:16:11;23.00;60.60
48806;DHT22;34625;47.176;27.548;2022-10-20T06:18:38;23.00;55.60
48806;DHT22;34625;47.176;27.548;2022-10-20T06:21:06;22.80;60.60
48806;DHT22;34625;47.176;27.548;2022-10-20T06:23:32;22.80;56.20
48806;DHT22;34625;47.176;27.548;2022-10-20T06:26:10;22.70;59.90
48806;DHT22;34625;47.176;27.548;2022-10-20T06:28:37;22.70;57.80
48806;DHT22;34625;47.176;27.548;2022-10-20T06:31:14;22.70;57.00
48806;DHT22;34625;47.176;27.548;2022-10-20T06:33:40;22.70;54.70
48806;DHT22;34625;47.176;27.548;2022-10-20T06:36:07;22.60;54.50
48806;DHT22;34625;47.176;27.548;2022-10-20T06:38:33;22.60;55.70
48806;DHT22;34625;47.176;27.548;2022-10-20T06:41:00;22.50;54.10
48806;DHT22;34625;47.176;27.548;2022-10-20T06:43:27;22.60;56.00
48806;DHT22;34625;47.176;27.548;2022-10-20T06:45:56;22.60;54.00
48806;DHT22;34625;47.176;27.548;2022-10-20T06:48:23;23.00;57.70
48806;DHT22;34625;47.176;27.548;2022-10-20T06:50:49;23.30;55.80
48806;DHT22;34625;47.176;27.548;2022-10-20T06:53:15;23.20;53.70
48806;DHT22;34625;47.176;27.548;2022-10-20T06:55:41;23.20;52.10
48806;DHT22;34625;47.176;27.548;2022-10-20T06:58:07;23.30;52.40
48806;DHT22;34625;47.176;27.548;2022-10-20T07:00:33;23.30;49.90
48806;DHT22;34625;47.176;27.548;2022-10-20T07:02:59;23.30;50.90
48806;DHT22;34625;47.176;27.548;2022-10-20T07:05:25;23.40;50.20
48806;DHT22;34625;47.176;27.548;2022-10-20T07:07:52;23.40;49.10
48806;DHT22;34625;47.176;27.548;2022-10-20T07:10:18;23.40;48.10
48806;DHT22;34625;47.176;27.548;2022-10-20T07:12:44;23.40;42.40
48806;DHT22;34625;47.176;27.548;2022-10-20T07:15:10;23.20;41.90
48806;DHT22;34625;47.176;27.548;2022-10-20T07:17:36;23.10;41.40
48806;DHT22;34625;47.176;27.548;2022-10-20T07:20:02;22.90;43.60
48806;DHT22;34625;47.176;27.548;2022-10-20T07:22:28;22.90;44.20
48806;DHT22;34625;47.176;27.548;2022-10-20T07:24:54;22.90;43.70
48806;DHT22;34625;47.176;27.548;2022-10-20T07:27:20;22.80;39.00
48806;DHT22;34625;47.176;27.548;2022-10-20T07:29:46;22.70;44.40
48806;DHT22;34625;47.176;27.548;2022-10-20T07:32:12;22.70;44.90
48806;DHT22;34625;47.176;27.548;2022-10-20T07:34:38;22.80;41.80
48806;DHT22;34625;47.176;27.548;2022-10-20T07:37:04;22.70;45.30
48806;DHT22;34625;47.176;27.548;2022-10-20T07:39:30;22.80;48.90
48806;DHT22;34625;47.176;27.548;2022-10-20T07:41:56;22.80;49.00
48806;DHT22;34625;47.176;27.548;2022-10-20T07:44:22;22.90;46.30
48806;DHT22;34625;47.176;27.548;2022-10-20T07:46:48;22.80;47.40
48806;DHT22;34625;47.176;27.548;2022-10-20T07:49:14;22.80;45.90
48806;DHT22;34625;47.176;27.548;2022-10-20T07:51:40;22.70;47.20
48806;DHT22;34625;47.176;27.548;2022-10-20T07:54:07;22.50;47.30
48806;DHT22;34625;47.176;27.548;2022-10-20T07:56:38;22.50;48.90
48806;DHT22;34625;47.176;27.548;2022-10-20T07:59:06;22.60;49.20
48806;DHT22;34625;47.176;27.548;2022-10-20T08:01:32;22.60;51.20
48806;DHT22;34625;47.176;27.548;2022-10-20T08:03:58;22.80;51.10
48806;DHT22;34625;47.176;27.548;2022-10-20T08:06:24;22.80;51.50
48806;DHT22;34625;47.176;27.548;2022-10-20T08:08:51;22.80;49.90
48806;DHT22;34625;47.176;27.548;2022-10-20T08:11:17;22.90;45.50
48806;DHT22;34625;47.176;27.548;2022-10-20T08:13:43;22.80;49.80
48806;DHT22;34625;47.176;27.548;2022-10-20T08:16:11;22.80;50.60
48806;DHT22;34625;47.176;27.548;2022-10-20T08:18:37;22.80;47.10
48806;DHT22;34625;47.176;27.548;2022-10-20T08:21:30;22.70;50.80
48806;DHT22;34625;47.176;27.548;2022-10-20T08:23:57;22.80;50.80
48806;DHT22;34625;47.176;27.548;2022-10-20T08:26:24;22.80;50.40
48806;DHT22;34625;47.176;27.548;2022-10-20T08:28:52;22.70;52.70
48806;DHT22;34625;47.176;27.548;2022-10-20T08:31:19;22.50;49.60
48806;DHT22;34625;47.176;27.548;2022-10-20T08:33:45;22.60;50.70
48806;DHT22;34625;47.176;27.548;2022-10-20T08:36:13;22.60;50.40
48806;DHT22;34625;47.176;27.548;2022-10-20T08:38:40;22.70;48.00
48806;DHT22;34625;47.176;27.548;2022-10-20T08:41:24;22.70;52.80
48806;DHT22;34625;47.176;27.548;2022-10-20T08:43:52;22.80;53.90
48806;DHT22;34625;47.176;27.548;2022-10-20T08:46:23;22.80;48.40
48806;DHT22;34625;47.176;27.548;2022-10-20T08:48:51;22.80;49.60
48806;DHT22;34625;47.176;27.548;2022-10-20T08:51:23;22.80;51.50
48806;DHT22;34625;47.176;27.548;2022-10-20T08:53:53;22.80;51.60
48806;DHT22;34625;47.176;27.548;2022-10-20T08:56:24;22.90;51.50
48806;DHT22;34625;47.176;27.548;2022-10-20T08:58:50;23.00;46.30
48806;DHT22;34625;47.176;27.548;2022-10-20T09:01:23;23.00;46.10
48806;DHT22;34625;47.176;27.548;2022-10-20T09:06:59;23.00;41.10
48806;DHT22;34625;47.176;27.548;2022-10-20T09:09:28;23.10;42.30
48806;DHT22;34625;47.176;27.548;2022-10-20T09:12:02;23.10;40.00
48806;DHT22;34625;47.176;27.548;2022-10-20T09:14:32;23.10;41.50
48806;DHT22;34625;47.176;27.548;2022-10-20T09:17:00;23.10;40.80
48806;DHT22;34625;47.176;27.548;2022-10-20T09:19:27;23.10;40.80
48806;DHT22;34625;47.176;27.548;2022-10-20T09:21:58;23.10;42.00
48806;DHT22;34625;47.176;27.548;2022-10-20T09:24:28;23.00;40.80
48806;DHT22;34625;47.176;27.548;2022-10-20T09:26:55;23.00;40.10
48806;DHT22;34625;47.176;27.548;2022-10-20T09:29:34;23.10;39.10
48806;DHT22;34625;47.176;27.548;2022-10-20T09:32:00;23.10;40.70
48806;DHT22;34625;47.176;27.548;2022-10-20T09:34:28;23.20;40.80
48806;DHT22;34625;47.176;27.548;2022-10-20T09:42:14;23.10;39.00
48806;DHT22;34625;47.176;27.548;2022-10-20T09:45:11;23.10;41.50
48806;DHT22;34625;47.176;27.548;2022-10-20T09:47:44;23.20;40.10
48806;DHT22;34625;47.176;27.548;2022-10-20T09:50:17;23.20;41.70
48806;DHT22;34625;47.176;27.548;2022-10-20T09:52:44;23.20;41.30
48806;DHT22;34625;47.176;27.548;2022-10-20T09:55:27;23.10;40.40
48806;DHT22;34625;47.176;27.548;2022-10-20T09:57:54;23.10;41.20
48806;DHT22;34625;47.176;27.548;2022-10-20T10:02:48;23.10;49.70
48806;DHT22;34625;47.176;27.548;2022-10-20T10:05:32;23.20;50.70
48806;DHT22;34625;47.176;27.548;2022-10-20T10:07:59;23.00;51.20
48806;DHT22;34625;47.176;27.548;2022-10-20T10:10:30;23.00;52.00
48806;DHT22;34625;47.176;27.548;2022-10-20T10:12:58;23.10;50.30
48806;DHT22;34625;47.176;27.548;2022-10-20T10:15:35;22.90;52.50
48806;DHT22;34625;47.176;27.548;2022-10-20T10:18:13;22.90;52.30
48806;DHT22;34625;47.176;27.548;2022-10-20T10:20:39;23.10;56.60
48806;DHT22;34625;47.176;27.548;2022-10-20T10:23:19;23.20;54.00
48806;DHT22;34625;47.176;27.548;2022-10-20T10:25:46;23.40;54.60
48806;DHT22;34625;47.176;27.548;2022-10-20T10:28:36;23.40;64.20
48806;DHT22;34625;47.176;27.548;2022-10-20T10:33:34;23.40;73.10
48806;DHT22;34625;47.176;27.548;2022-10-20T10:36:04;23.40;73.50
48806;DHT22;34625;47.176;27.548;2022-10-20T10:38:31;23.70;60.80
48806;DHT22;34625;47.176;27.548;2022-10-20T10:41:20;23.70;53.00
48806;DHT22;34625;47.176;27.548;2022-10-20T10:59:09;24.20;40.60
48806;DHT22;34625;47.176;27.548;2022-10-20T11:02:03;24.20;53.50
48806;DHT22;34625;47.176;27.548;2022-10-20T11:07:44;24.10;51.50
48806;DHT22;34625;47.176;27.548;2022-10-20T11:12:59;24.10;49.70
48806;DHT22;34625;47.176;27.548;2022-10-20T11:24:45;23.80;53.60
48806;DHT22;34625;47.176;27.548;2022-10-20T11:27:16;23.90;56.70
48806;DHT22;34625;47.176;27.548;2022-10-20T11:29:52;24.00;52.40
48806;DHT22;34625;47.176;27.548;2022-10-20T11:32:28;24.00;54.20
48806;DHT22;34625;47.176;27.548;2022-10-20T11:35:06;23.90;52.70
48806;DHT22;34625;47.176;27.548;2022-10-20T11:37:49;24.00;56.80
48806;DHT22;34625;47.176;27.548;2022-10-20T11:40:22;24.00;56.60
48806;DHT22;34625;47.176;27.548;2022-10-20T11:45:49;23.90;47.20
48806;DHT22;34625;47.176;27.548;2022-10-20T11:48:23;23.80;53.90
48806;DHT22;34625;47.176;27.548;2022-10-20T11:57:14;23.80;52.70
48806;DHT22;34625;47.176;27.548;2022-10-20T12:15:45;23.80;52.10
48806;DHT22;34625;47.176;27.548;2022-10-20T12:18:26;23.80;53.20
48806;DHT22;34625;47.176;27.548;2022-10-20T12:20:55;23.80;55.50
48806;DHT22;34625;47.176;27.548;2022-10-20T12:23:54;23.80;53.00
48806;DHT22;34625;47.176;27.548;2022-10-20T12:28:58;23.60;52.40
48806;DHT22;34625;47.176;27.548;2022-10-20T12:34:40;23.60;53.00
48806;DHT22;34625;47.176;27.548;2022-10-20T12:37:07;23.70;52.50
48806;DHT22;34625;47.176;27.548;2022-10-20T12:39:35;23.70;55.30
48806;DHT22;34625;47.176;27.548;2022-10-20T12:42:02;23.70;53.10
48806;DHT22;34625;47.176;27.548;2022-10-20T12:44:37;23.60;54.10
48806;DHT22;34625;47.176;27.548;2022-10-20T12:47:06;23.80;52.70
48806;DHT22;34625;47.176;27.548;2022-10-20T12:49:36;23.70;54.60
48806;DHT22;34625;47.176;27.548;2022-10-20T12:52:05;23.80;52.80
48806;DHT22;34625;47.176;27.548;2022-10-20T12:54:39;23.60;55.20
48806;DHT22;34625;47.176;27.548;2022-10-20T12:59:55;23.70;54.20
48806;DHT22;34625;47.176;27.548;2022-10-20T13:10:37;23.60;54.80
48806;DHT22;34625;47.176;27.548;2022-10-20T13:18:15;23.50;53.50
48806;DHT22;34625;47.176;27.548;2022-10-20T13:21:01;23.50;53.80
48806;DHT22;34625;47.176;27.548;2022-10-20T13:26:51;23.60;55.40
48806;DHT22;34625;47.176;27.548;2022-10-20T13:29:32;23.60;55.50
48806;DHT22;34625;47.176;27.548;2022-10-20T13:32:29;23.70;56.10
48806;DHT22;34625;47.176;27.548;2022-10-20T13:35:08;23.70;53.30
48806;DHT22;34625;47.176;27.548;2022-10-20T13:38:11;23.50;55.50
48806;DHT22;34625;47.176;27.548;2022-10-20T13:40:57;23.60;53.90
48806;DHT22;34625;47.176;27.548;2022-10-20T13:48:39;23.50;54.70
48806;DHT22;34625;47.176;27.548;2022-10-20T13:51:22;23.40;56.00
48806;DHT22;34625;47.176;27.548;2022-10-20T13:53:52;23.60;55.60
48806;DHT22;34625;47.176;27.548;2022-10-20T13:56:36;23.50;55.90
48806;DHT22;34625;47.176;27.548;2022-10-20T14:01:33;23.40;56.10
48806;DHT22;34625;47.176;27.548;2022-10-20T14:03:59;23.50;54.70
48806;DHT22;34625;47.176;27.548;2022-10-20T14:06:30;23.40;55.10
48806;DHT22;34625;47.176;27.548;2022-10-20T14:09:24;23.40;54.30
48806;DHT22;34625;47.176;27.548;2022-10-20T14:11:54;23.50;53.50
48806;DHT22;34625;47.176;27.548;2022-10-20T14:14:24;23.40;55.50
48806;DHT22;34625;47.176;27.548;2022-10-20T14:16:54;23.40;53.90
48806;DHT22;34625;47.176;27.548;2022-10-20T14:19:21;23.50;55.00
48806;DHT22;34625;47.176;27.548;2022-10-20T14:21:53;23.50;56.40
48806;DHT22;34625;47.176;27.548;2022-10-20T14:24:31;23.70;61.00
48806;DHT22;34625;47.176;27.548;2022-10-20T14:27:00;23.80;52.00
48806;DHT22;34625;47.176;27.548;2022-10-20T14:29:32;23.90;51.70
48806;DHT22;34625;47.176;27.548;2022-10-20T14:31:59;24.00;58.60
48806;DHT22;34625;47.176;27.548;2022-10-20T14:34:30;24.10;53.60
48806;DHT22;34625;47.176;27.548;2022-10-20T14:36:58;24.00;47.00
48806;DHT22;34625;47.176;27.548;2022-10-20T14:39:35;24.20;48.50
48806;DHT22;34625;47.176;27.548;2022-10-20T14:42:05;24.10;49.50
48806;DHT22;34625;47.176;27.548;2022-10-20T14:44:42;24.30;44.90
48806;DHT22;34625;47.176;27.548;2022-10-20T14:47:11;24.30;49.60
48806;DHT22;34625;47.176;27.548;2022-10-20T14:49:40;24.20;49.30
48806;DHT22;34625;47.176;27.548;2022-10-20T14:54:43;24.30;42.50
48806;DHT22;34625;47.176;27.548;2022-10-20T15:02:23;24.20;51.10
48806;DHT22;34625;47.176;27.548;2022-10-20T15:04:50;24.30;50.70
48806;DHT22;34625;47.176;27.548;2022-10-20T15:07:31;24.20;53.10
48806;DHT22;34625;47.176;27.548;2022-10-20T15:10:09;24.10;54.30
48806;DHT22;34625;47.176;27.548;2022-10-20T15:12:44;24.20;54.90
48806;DHT22;34625;47.176;27.548;2022-10-20T15:17:45;24.00;49.70
48806;DHT22;34625;47.176;27.548;2022-10-20T15:20:31;24.10;55.00
48806;DHT22;34625;47.176;27.548;2022-10-20T15:25:36;23.90;55.30
48806;DHT22;34625;47.176;27.548;2022-10-20T15:28:02;23.90;50.50
48806;DHT22;34625;47.176;27.548;2022-10-20T15:30:28;23.80;54.20
48806;DHT22;34625;47.176;27.548;2022-10-20T15:32:56;23.80;56.30
48806;DHT22;34625;47.176;27.548;2022-10-20T15:35:22;23.90;57.00
48806;DHT22;34625;47.176;27.548;2022-10-20T15:37:51;23.90;56.10
48806;DHT22;34625;47.176;27.548;2022-10-20T15:40:18;24.00;56.00
48806;DHT22;34625;47.176;27.548;2022-10-20T15:42:45;23.80;56.90
48806;DHT22;34625;47.176;27.548;2022-10-20T15:45:23;23.90;49.00
48806;DHT22;34625;47.176;27.548;2022-10-20T15:47:49;23.60;54.30
48806;DHT22;34625;47.176;27.548;2022-10-20T15:50:16;23.50;57.00
48806;DHT22;34625;47.176;27.548;2022-10-20T15:52:42;23.40;56.90
48806;DHT22;34625;47.176;27.548;2022-10-20T15:55:21;23.30;56.70
48806;DHT22;34625;47.176;27.548;2022-10-20T15:57:49;23.20;57.30
48806;DHT22;34625;47.176;27.548;2022-10-20T16:00:16;23.10;56.50
48806;DHT22;34625;47.176;27.548;2022-10-20T16:02:43;23.00;57.60
48806;DHT22;34625;47.176;27.548;2022-10-20T16:05:09;22.90;58.90
48806;DHT22;34625;47.176;27.548;2022-10-20T16:07:35;22.90;58.90
48806;DHT22;34625;47.176;27.548;2022-10-20T16:10:02;22.80;59.10
48806;DHT22;34625;47.176;27.548;2022-10-20T16:12:28;22.70;58.60
48806;DHT22;34625;47.176;27.548;2022-10-20T16:14:54;22.60;59.20
48806;DHT22;34625;47.176;27.548;2022-10-20T16:17:20;22.60;57.70
48806;DHT22;34625;47.176;27.548;2022-10-20T16:19:46;22.60;60.60
48806;DHT22;34625;47.176;27.548;2022-10-20T16:22:12;22.70;61.20
48806;DHT22;34625;47.176;27.548;2022-10-20T16:24:38;22.70;60.80
48806;DHT22;34625;47.176;27.548;2022-10-20T16:27:04;22.70;60.90
48806;DHT22;34625;47.176;27.548;2022-10-20T16:29:31;22.80;60.40
48806;DHT22;34625;47.176;27.548;2022-10-20T16:31:58;22.90;60.00
48806;DHT22;34625;47.176;27.548;2022-10-20T16:34:26;23.00;56.20
48806;DHT22;34625;47.176;27.548;2022-10-20T16:36:52;23.10;55.20
48806;DHT22;34625;47.176;27.548;2022-10-20T16:39:18;23.40;56.50
48806;DHT22;34625;47.176;27.548;2022-10-20T16:41:45;23.60;54.20
48806;DHT22;34625;47.176;27.548;2022-10-20T16:44:11;23.60;51.00
48806;DHT22;34625;47.176;27.548;2022-10-20T16:46:38;23.70;44.70
48806;DHT22;34625;47.176;27.548;2022-10-20T16:49:04;23.70;43.50
48806;DHT22;34625;47.176;27.548;2022-10-20T16:51:31;23.70;42.60
48806;DHT22;34625;47.176;27.548;2022-10-20T16:53:57;23.70;46.00
48806;DHT22;34625;47.176;27.548;2022-10-20T16:56:24;23.80;54.00
48806;DHT22;34625;47.176;27.548;2022-10-20T16:58:50;23.60;54.80
48806;DHT22;34625;47.176;27.548;2022-10-20T17:01:19;23.50;55.60
48806;DHT22;34625;47.176;27.548;2022-10-20T17:03:48;23.50;55.30
48806;DHT22;34625;47.176;27.548;2022-10-20T17:06:16;23.40;56.20
48806;DHT22;34625;47.176;27.548;2022-10-20T17:08:42;23.30;55.70
48806;DHT22;34625;47.176;27.548;2022-10-20T17:11:29;23.20;56.90
48806;DHT22;34625;47.176;27.548;2022-10-20T17:13:57;23.30;57.10
48806;DHT22;34625;47.176;27.548;2022-10-20T17:16:29;23.20;57.20
48806;DHT22;34625;47.176;27.548;2022-10-20T17:18:56;23.10;57.40
48806;DHT22;34625;47.176;27.548;2022-10-20T17:21:22;23.10;57.60
48806;DHT22;34625;47.176;27.548;2022-10-20T17:23:48;23.00;57.70
48806;DHT22;34625;47.176;27.548;2022-10-20T17:26:20;23.10;58.00
48806;DHT22;34625;47.176;27.548;2022-10-20T17:28:48;23.00;58.10
48806;DHT22;34625;47.176;27.548;2022-10-20T17:31:15;23.00;58.40
48806;DHT22;34625;47.176;27.548;2022-10-20T17:33:42;23.00;58.30
48806;DHT22;34625;47.176;27.548;2022-10-20T17:36:09;23.00;58.40
48806;DHT22;34625;47.176;27.548;2022-10-20T17:38:37;22.90;58.50
48806;DHT22;34625;47.176;27.548;2022-10-20T17:41:10;22.80;58.40
48806;DHT22;34625;47.176;27.548;2022-10-20T17:43:37;22.90;58.60
48806;DHT22;34625;47.176;27.548;2022-10-20T17:46:10;22.80;58.60
48806;DHT22;34625;47.176;27.548;2022-10-20T17:48:37;22.80;58.80